Time;durP1;ratioP1;P1;durP2;ratioP2;P2;SDS_P1;SDS_P2;PMS_P1;PMS_P2;Temp;Humidity;BMP_temperature;BMP_pressure;BME280_temperature;BME280_humidity;BME280_pressure;Samples;Min_cycle;Max_cycle;Signal;HPM_P1;HPM_P2
2022/11/09 00:00:18;;;;;;;;;1.00;1.00;;;;;15.42;65.67;98990.72;5136401;27;8822;-57
2022/11/09 00:02:46;;;;;;;;;1.00;1.00;;;;;15.43;65.76;98995.06;5136226;27;8886;-58
2022/11/09 00:05:13;;;;;;;;;1.40;1.40;;;;;15.43;65.65;98989.69;5135695;27;8814;-59
2022/11/09 00:07:41;;;;;;;;;1.00;1.00;;;;;15.46;66.00;98981.31;5136236;27;8818;-59
2022/11/09 00:10:08;;;;;;;;;2.00;2.00;;;;;15.48;65.48;98981.97;5135556;27;8849;-58
2022/11/09 00:12:36;;;;;;;;;0.50;0.50;;;;;15.49;65.91;98987.13;5136655;27;8810;-59
2022/11/09 00:15:04;;;;;;;;;2.50;1.00;;;;;15.49;65.45;98978.28;5135502;27;8822;-59
2022/11/09 00:17:31;;;;;;;;;1.00;1.00;;;;;15.51;65.31;98986.97;5135113;27;8826;-58
2022/11/09 00:19:59;;;;;;;;;1.00;1.00;;;;;15.52;65.72;98985.94;5135794;27;8821;-59
2022/11/09 00:22:27;;;;;;;;;2.00;2.00;;;;;15.56;65.65;98971.19;5135351;27;9481;-59
2022/11/09 00:24:55;;;;;;;;;3.00;1.00;;;;;15.57;65.29;98971.03;5135466;27;8841;-58
2022/11/09 00:27:22;;;;;;;;;0.00;0.00;;;;;15.60;65.54;98964.44;5135574;27;8829;-58
2022/11/09 00:29:50;;;;;;;;;1.00;1.00;;;;;15.63;65.41;98982.88;5135403;27;8826;-58
2022/11/09 00:32:18;;;;;;;;;0.00;0.00;;;;;15.63;65.76;98966.78;5135187;27;8825;-59
2022/11/09 00:34:50;;;;;;;;;0.50;0.50;;;;;15.66;65.67;98961.03;5135651;27;8831;-58
2022/11/09 00:37:18;;;;;;;;;1.00;1.00;;;;;15.65;65.56;98972.81;5136078;27;8899;-59
2022/11/09 00:39:46;;;;;;;;;2.00;2.00;;;;;15.65;65.56;98965.59;5135102;27;8830;-59
2022/11/09 00:42:13;;;;;;;;;1.00;1.00;;;;;15.65;66.21;98956.69;5134991;27;8829;-58
2022/11/09 00:44:41;;;;;;;;;0.00;0.00;;;;;15.65;65.76;98956.69;5135087;27;8872;-59
2022/11/09 00:47:10;;;;;;;;;1.00;1.00;;;;;15.66;66.14;98958.38;5135078;27;8837;-58
2022/11/09 00:49:38;;;;;;;;;3.00;3.00;;;;;15.65;66.19;98970.97;5135422;27;8857;-59
2022/11/09 00:52:06;;;;;;;;;1.50;1.00;;;;;15.65;66.20;98962.06;5135057;27;8814;-58
2022/11/09 00:54:34;;;;;;;;;0.20;0.20;;;;;15.65;66.30;98962.06;5134430;27;8821;-58
2022/11/09 00:57:01;;;;;;;;;1.00;1.00;;;;;15.66;66.12;98979.84;5135362;27;8833;-57
2022/11/09 00:59:30;;;;;;;;;1.40;1.00;;;;;15.64;66.22;98977.31;5136169;27;8822;-59
2022/11/09 01:01:58;;;;;;;;;1.00;1.00;;;;;15.62;66.10;98971.31;5135766;27;8894;-58
2022/11/09 01:04:25;;;;;;;;;0.40;0.00;;;;;15.61;66.12;98966.94;5135761;27;8841;-58
2022/11/09 01:06:53;;;;;;;;;2.60;1.80;;;;;15.58;66.27;98967.31;5136670;27;9519;-58
2022/11/09 01:09:21;;;;;;;;;1.00;1.00;;;;;15.57;66.06;98970.16;5136654;27;8969;-57
2022/11/09 01:11:50;;;;;;;;;3.40;1.40;;;;;15.56;66.17;98968.50;5136575;27;8822;-59
2022/11/09 01:14:18;;;;;;;;;1.50;1.50;;;;;15.58;66.28;98977.19;5136491;27;8902;-59
2022/11/09 01:16:45;;;;;;;;;0.00;0.00;;;;;15.57;66.28;98981.75;5136377;27;9512;-57
2022/11/09 01:19:13;;;;;;;;;1.80;1.80;;;;;15.58;66.70;98982.56;5136431;27;8830;-57
2022/11/09 01:21:40;;;;;;;;;0.00;0.00;;;;;15.57;66.54;98970.16;5136264;27;8821;-57
2022/11/09 01:24:08;;;;;;;;;1.00;1.00;;;;;15.55;66.86;98964.16;5136053;27;8890;-58
2022/11/09 01:26:36;;;;;;;;;0.80;0.80;;;;;15.55;66.40;98964.16;5136364;27;8797;-57
2022/11/09 01:29:04;;;;;;;;;2.50;1.00;;;;;15.53;66.46;98968.84;5135447;27;8817;-57
2022/11/09 01:31:31;;;;;;;;;2.00;2.00;;;;;15.52;66.67;98976.06;5137009;27;8841;-57
2022/11/09 01:33:59;;;;;;;;;0.50;0.50;;;;;15.52;66.75;98972.53;5139404;27;8890;-58
2022/11/09 01:36:28;;;;;;;;;0.00;0.00;;;;;15.52;67.18;98970.69;5139525;27;8822;-56
2022/11/09 01:38:56;;;;;;;;;3.00;2.00;;;;;15.52;67.45;98961.81;5139054;27;8822;-58
2022/11/09 01:41:23;;;;;;;;;1.00;1.00;;;;;15.51;66.83;98960.13;5139307;27;8825;-58
2022/11/09 01:43:51;;;;;;;;;2.00;2.00;;;;;15.50;67.20;98975.41;5138911;27;9492;-57
2022/11/09 01:46:18;;;;;;;;;0.75;0.75;;;;;15.49;67.32;98971.03;5139288;27;8841;-58
2022/11/09 01:48:47;;;;;;;;;1.00;1.00;;;;;15.48;67.05;98981.97;5139333;27;8810;-58
2022/11/09 01:51:15;;;;;;;;;1.00;1.00;;;;;15.45;67.21;98988.53;5138365;27;8830;-56
2022/11/09 01:53:43;;;;;;;;;1.00;1.00;;;;;15.42;67.34;98978.16;5137507;27;8834;-56
2022/11/09 01:56:10;;;;;;;;;1.00;1.00;;;;;15.41;67.79;98981.00;5138156;27;8876;-57
2022/11/09 01:58:38;;;;;;;;;1.00;1.00;;;;;15.44;67.31;98980.63;5138497;27;8834;-59
2022/11/09 02:01:09;;;;;;;;;3.00;3.00;;;;;15.42;67.59;98978.16;5139119;27;9472;-58
2022/11/09 02:03:37;;;;;;;;;1.00;1.00;;;;;15.40;67.46;98982.84;5138818;27;8830;-57
2022/11/09 02:06:05;;;;;;;;;0.50;0.50;;;;;15.37;67.11;98975.16;5139432;27;8886;-58
2022/11/09 02:08:33;;;;;;;;;1.00;1.00;;;;;15.37;67.86;98985.03;5139175;27;8841;-58
2022/11/09 02:11:00;;;;;;;;;2.00;1.00;;;;;15.38;67.54;98978.66;5138687;27;8822;-59
2022/11/09 02:13:31;;;;;;;;;0.75;0.75;;;;;15.38;67.52;98970.59;5138519;27;8826;-59
2022/11/09 02:15:59;;;;;;;;;1.00;1.00;;;;;15.37;67.73;98967.09;5138605;27;8897;-58
2022/11/09 02:18:26;;;;;;;;;1.00;1.00;;;;;15.39;67.92;98956.19;5138520;27;8826;-58
2022/11/09 02:20:54;;;;;;;;;2.60;2.60;;;;;15.39;67.40;98972.31;5138865;27;8832;-59
2022/11/09 02:23:21;;;;;;;;;1.00;1.00;;;;;15.36;67.49;98978.84;5138958;27;8890;-59
2022/11/09 02:25:50;;;;;;;;;1.00;1.00;;;;;15.36;67.68;98981.53;5138180;27;8810;-59
2022/11/09 02:28:18;;;;;;;;;2.00;2.00;;;;;15.35;67.82;98981.69;5138355;27;8919;-59
2022/11/09 02:30:45;;;;;;;;;0.25;0.25;;;;;15.35;67.60;98976.31;5138757;27;8902;-59
2022/11/09 02:33:13;;;;;;;;;0.00;0.00;;;;;15.33;67.86;98968.44;5138236;27;8906;-59
2022/11/09 02:35:41;;;;;;;;;0.75;0.75;;;;;15.33;68.05;98971.13;5138220;27;8822;-59
2022/11/09 02:38:08;;;;;;;;;0.75;0.75;;;;;15.31;67.78;98965.13;5137805;27;8826;-59
2022/11/09 02:40:37;;;;;;;;;0.40;0.40;;;;;15.26;68.09;98964.75;5137651;27;8837;-58
2022/11/09 02:43:04;;;;;;;;;1.00;1.00;;;;;15.23;67.92;98962.44;5137281;27;8914;-59
2022/11/09 02:45:32;;;;;;;;;1.00;1.00;;;;;15.20;67.55;98961.94;5138010;27;8849;-59
2022/11/09 02:47:59;;;;;;;;;0.75;0.75;;;;;15.17;68.00;98951.59;5138316;27;8829;-59
2022/11/09 02:50:27;;;;;;;;;1.50;1.00;;;;;15.17;67.98;98955.09;5138324;27;8886;-59
2022/11/09 02:52:55;;;;;;;;;1.00;1.00;;;;;15.18;68.07;98954.06;5138274;27;8817;-59
2022/11/09 02:55:23;;;;;;;;;1.00;1.00;;;;;15.17;68.45;98956.94;5138115;27;8902;-58
2022/11/09 02:57:51;;;;;;;;;0.00;0.00;;;;;15.14;68.39;98960.81;5138046;27;8829;-58
2022/11/09 03:00:18;;;;;;;;;1.50;1.50;;;;;15.14;68.42;98957.28;5137995;27;8822;-59
2022/11/09 03:02:46;;;;;;;;;0.75;0.75;;;;;15.12;68.69;98962.84;5138457;27;9472;-59
2022/11/09 03:05:14;;;;;;;;;0.25;0.25;;;;;15.10;68.83;98964.03;5138222;27;9488;-59
2022/11/09 03:07:41;;;;;;;;;1.00;1.00;;;;;15.09;68.56;98978.44;5138213;27;8822;-59
2022/11/09 03:10:09;;;;;;;;;1.40;0.00;;;;;15.07;68.87;98967.03;5137904;27;8826;-59
2022/11/09 03:12:36;;;;;;;;;3.00;2.00;;;;;15.04;68.62;98967.41;5138056;27;8826;-59
2022/11/09 03:15:04;;;;;;;;;0.00;0.00;;;;;15.03;68.74;98960.38;5137970;27;8806;-59
2022/11/09 03:17:31;;;;;;;;;1.00;1.00;;;;;15.02;68.76;98966.75;5137353;27;8953;-59
2022/11/09 03:19:59;;;;;;;;;2.00;1.00;;;;;14.99;68.99;98969.75;5137147;27;8814;-59
2022/11/09 03:22:27;;;;;;;;;0.50;0.50;;;;;14.98;69.20;98976.13;5137595;27;8818;-59
2022/11/09 03:24:54;;;;;;;;;0.00;0.00;;;;;14.96;69.18;98978.16;5138096;27;9515;-59
2022/11/09 03:27:22;;;;;;;;;0.25;0.25;;;;;14.95;68.93;98979.97;5137289;27;8897;-59
2022/11/09 03:29:50;;;;;;;;;2.00;1.00;;;;;14.94;68.87;98972.13;5137720;27;8897;-59
2022/11/09 03:32:17;;;;;;;;;3.00;3.00;;;;;14.93;69.75;98976.66;5137106;27;8838;-59
2022/11/09 03:34:45;;;;;;;;;0.25;0.25;;;;;14.93;69.50;98983.84;5137156;27;8821;-59
2022/11/09 03:37:12;;;;;;;;;2.00;2.00;;;;;14.94;68.91;98982.84;5136853;27;8905;-59
2022/11/09 03:39:41;;;;;;;;;0.00;0.00;;;;;14.94;69.46;98985.53;5137409;27;8826;-58
2022/11/09 03:42:08;;;;;;;;;1.00;1.00;;;;;14.94;69.24;98975.63;5136884;27;8810;-59
2022/11/09 03:44:36;;;;;;;;;1.00;1.00;;;;;14.94;69.06;98980.19;5137331;27;9602;-59
2022/11/09 03:47:04;;;;;;;;;2.50;1.00;;;;;14.95;69.67;98971.13;5137186;27;9516;-59
2022/11/09 03:49:31;;;;;;;;;1.00;1.00;;;;;14.97;69.70;98983.34;5137303;27;8817;-59
2022/11/09 03:51:59;;;;;;;;;1.00;1.00;;;;;14.96;69.52;98987.00;5136934;27;8817;-59
2022/11/09 03:54:27;;;;;;;;;1.00;1.00;;;;;14.95;69.74;98984.53;5136530;27;8817;-59
2022/11/09 03:56:54;;;;;;;;;3.75;3.00;;;;;14.92;69.79;98988.38;5136055;27;8833;-59
2022/11/09 03:59:22;;;;;;;;;1.50;1.50;;;;;14.90;69.54;98989.56;5137153;27;8897;-59
2022/11/09 04:01:50;;;;;;;;;1.00;1.00;;;;;14.91;69.71;98996.59;5136616;27;8822;-59
2022/11/09 04:04:19;;;;;;;;;1.00;1.00;;;;;14.92;69.95;98990.22;5136765;27;8822;-58
2022/11/09 04:06:47;;;;;;;;;1.00;1.00;;;;;14.92;69.59;98988.38;5137200;27;8910;-59
2022/11/09 04:09:14;;;;;;;;;2.50;1.00;;;;;14.93;69.28;98997.25;5136850;27;8961;-59
2022/11/09 04:11:42;;;;;;;;;2.00;1.00;;;;;14.95;69.23;98995.25;5136829;27;8806;-59
2022/11/09 04:14:09;;;;;;;;;1.00;1.00;;;;;14.98;69.15;98994.91;5136812;27;8809;-58
2022/11/09 04:16:38;;;;;;;;;1.00;1.00;;;;;15.01;69.33;99000.75;5136738;27;8882;-59
2022/11/09 04:19:06;;;;;;;;;1.00;1.00;;;;;15.04;68.92;99011.16;5136266;27;8898;-59
2022/11/09 04:21:33;;;;;;;;;0.00;0.00;;;;;15.06;68.93;99013.63;5136440;27;8818;-59
2022/11/09 04:24:01;;;;;;;;;0.00;0.00;;;;;15.08;69.56;99003.56;5136817;27;8814;-59
2022/11/09 04:26:29;;;;;;;;;1.00;1.00;;;;;15.09;69.62;99010.63;5136504;27;8905;-59
2022/11/09 04:28:58;;;;;;;;;1.00;1.00;;;;;15.10;69.36;99006.94;5136623;27;8910;-59
2022/11/09 04:31:26;;;;;;;;;1.00;1.00;;;;;15.09;69.63;99002.59;5136193;27;8802;-59
2022/11/09 04:33:54;;;;;;;;;1.00;1.00;;;;;15.08;69.57;99001.72;5136578;27;8922;-59
2022/11/09 04:36:22;;;;;;;;;1.00;1.00;;;;;15.07;69.31;99000.06;5136828;27;8825;-59
2022/11/09 04:38:49;;;;;;;;;1.00;1.00;;;;;15.07;69.36;99000.06;5136608;27;8981;-59
2022/11/09 04:41:17;;;;;;;;;1.00;1.00;;;;;15.06;69.16;99009.13;5136536;27;8821;-58
2022/11/09 04:43:45;;;;;;;;;1.00;1.00;;;;;15.07;69.71;99005.44;5136153;27;8814;-59
2022/11/09 04:46:12;;;;;;;;;0.00;0.00;;;;;15.07;69.98;99008.09;5136248;27;8806;-58
2022/11/09 04:48:40;;;;;;;;;1.50;1.00;;;;;15.07;69.50;99002.75;5136384;27;8890;-59
2022/11/09 04:51:09;;;;;;;;;1.00;1.00;;;;;15.07;69.78;99005.44;5136456;27;8833;-59
2022/11/09 04:53:38;;;;;;;;;1.00;1.00;;;;;15.07;69.47;99005.44;5135837;27;8950;-59
2022/11/09 04:56:06;;;;;;;;;1.00;1.00;;;;;15.05;69.89;99004.78;5136770;27;8833;-59
2022/11/09 04:58:33;;;;;;;;;2.00;1.00;;;;;15.07;70.27;98999.22;5136559;27;8830;-59
2022/11/09 05:01:01;;;;;;;;;1.00;1.00;;;;;15.07;70.03;99005.44;5135958;27;8833;-59
2022/11/09 05:03:28;;;;;;;;;2.00;1.00;;;;;15.08;69.64;99007.09;5136432;27;8822;-59
2022/11/09 05:05:56;;;;;;;;;1.50;1.00;;;;;15.08;69.46;99006.25;5136021;27;8890;-59
2022/11/09 05:08:24;;;;;;;;;1.00;1.00;;;;;15.06;69.83;99002.91;5139350;27;8833;-60
2022/11/09 05:10:51;;;;;;;;;1.00;1.00;;;;;15.05;69.51;99002.09;5139700;27;8841;-59
2022/11/09 05:13:19;;;;;;;;;1.00;1.00;;;;;15.03;69.59;99001.41;5139147;27;8913;-59
2022/11/09 05:15:47;;;;;;;;;0.00;0.00;;;;;15.03;69.58;99014.00;5138757;27;8826;-59
2022/11/09 05:18:15;;;;;;;;;1.00;1.00;;;;;15.03;69.42;99008.63;5138682;27;8813;-58
2022/11/09 05:20:43;;;;;;;;;1.00;1.00;;;;;15.03;69.98;99017.50;5138608;27;8914;-59
2022/11/09 05:25:56;;;;;;;;;0.00;0.00;;;;;15.08;69.59;99016.97;5139364;27;8860;-59
2022/11/09 05:28:24;;;;;;;;;2.50;1.00;;;;;15.09;69.55;99016.00;5138814;27;8841;-59
2022/11/09 05:30:52;;;;;;;;;3.00;3.00;;;;;15.06;69.79;99021.69;5139130;27;8809;-59
2022/11/09 05:33:19;;;;;;;;;1.00;1.00;;;;;15.04;69.67;99018.34;5138731;27;9505;-59
2022/11/09 05:35:47;;;;;;;;;2.50;2.00;;;;;15.03;69.79;99027.41;5139030;27;8822;-59
2022/11/09 05:38:15;;;;;;;;;1.50;1.00;;;;;15.01;69.85;99029.41;5139400;27;8873;-59
2022/11/09 05:40:44;;;;;;;;;2.00;2.00;;;;;15.01;69.16;99032.91;5139004;27;9501;-59
2022/11/09 05:43:11;;;;;;;;;0.00;0.00;;;;;15.02;69.31;99029.22;5139225;27;8810;-59
2022/11/09 05:45:39;;;;;;;;;1.00;1.00;;;;;15.02;69.79;99031.09;5138066;27;8905;-59
2022/11/09 05:48:10;;;;;;;;;0.75;0.75;;;;;14.94;69.90;99036.47;5137951;27;8830;-59
2022/11/09 05:50:38;;;;;;;;;0.50;0.50;;;;;14.79;70.37;99027.47;5137994;27;8825;-59
2022/11/09 05:53:05;;;;;;;;;0.75;0.75;;;;;14.63;70.79;99038.22;5137993;27;8838;-59
2022/11/09 05:55:33;;;;;;;;;1.00;1.00;;;;;14.51;71.16;99035.03;5138332;27;8818;-59
2022/11/09 05:58:01;;;;;;;;;1.00;1.00;;;;;14.41;71.61;99037.03;5138041;27;9581;-57
2022/11/09 06:00:29;;;;;;;;;0.75;0.75;;;;;14.35;71.64;99035.03;5137925;27;8838;-58
2022/11/09 06:02:56;;;;;;;;;1.75;0.75;;;;;14.32;71.76;99030.03;5138130;27;8848;-59
2022/11/09 06:05:25;;;;;;;;;0.00;0.00;;;;;14.32;71.22;99031.84;5138132;27;8857;-59
2022/11/09 06:07:53;;;;;;;;;0.75;0.50;;;;;14.31;71.71;99036.38;5137831;27;8833;-58
2022/11/09 06:10:20;;;;;;;;;1.00;0.00;;;;;14.32;71.74;99040.75;5137447;27;8825;-59
2022/11/09 06:12:48;;;;;;;;;0.00;0.00;;;;;14.34;71.44;99038.72;5137360;27;8822;-59
2022/11/09 06:15:16;;;;;;;;;0.00;0.00;;;;;14.35;71.30;99036.91;5137307;27;8833;-59
2022/11/09 06:17:44;;;;;;;;;0.00;0.00;;;;;14.29;71.39;99042.91;5136138;27;9577;-59
2022/11/09 06:20:12;;;;;;;;;0.25;0.25;;;;;14.09;71.76;99045.06;5136123;27;8826;-59
2022/11/09 06:22:39;;;;;;;;;1.00;1.00;;;;;13.85;72.84;99052.19;5135500;27;8841;-58
2022/11/09 06:25:07;;;;;;;;;0.00;0.00;;;;;13.64;73.24;99062.50;5135434;27;8886;-59
2022/11/09 06:27:35;;;;;;;;;0.00;0.00;;;;;13.51;73.71;99054.94;5135854;27;8832;-61
2022/11/09 06:30:03;;;;;;;;;0.00;0.00;;;;;13.50;73.90;99068.47;5135915;27;8814;-59
2022/11/09 06:32:31;;;;;;;;;1.00;1.00;;;;;13.48;73.42;99063.31;5136242;27;8910;-59
2022/11/09 06:34:59;;;;;;;;;1.00;1.00;;;;;13.48;73.54;99071.34;5136448;27;9579;-58
2022/11/09 06:37:27;;;;;;;;;0.00;0.00;;;;;13.49;73.82;99061.47;5136181;27;8802;-57
2022/11/09 06:39:54;;;;;;;;;0.00;0.00;;;;;13.50;73.47;99063.13;5136700;27;8814;-57
2022/11/09 06:42:23;;;;;;;;;0.00;0.00;;;;;13.51;73.34;99071.00;5136257;27;8830;-59
2022/11/09 06:44:51;;;;;;;;;0.00;0.00;;;;;13.53;73.30;99068.19;5136635;27;8828;-59
2022/11/09 06:47:19;;;;;;;;;0.00;0.00;;;;;13.52;73.65;99069.19;5136039;27;8960;-58
2022/11/09 06:49:47;;;;;;;;;0.00;0.00;;;;;13.53;73.61;99078.88;5135666;27;8854;-59
2022/11/09 06:52:14;;;;;;;;;3.00;1.00;;;;;13.52;73.51;99075.34;5135802;27;8829;-58
2022/11/09 06:54:43;;;;;;;;;0.00;0.00;;;;;13.50;73.40;99079.19;5134781;27;8845;-59
2022/11/09 06:57:11;;;;;;;;;0.00;0.00;;;;;13.48;73.90;99083.84;5135271;27;8860;-59
2022/11/09 06:59:39;;;;;;;;;0.25;0.25;;;;;13.39;73.62;99082.16;5134570;27;8909;-59
2022/11/09 07:02:06;;;;;;;;;1.00;1.00;;;;;13.30;73.59;99083.13;5134558;27;8872;-58
2022/11/09 07:04:34;;;;;;;;;0.00;0.00;;;;;13.20;74.03;99087.75;5133735;27;8894;-59
2022/11/09 07:07:03;;;;;;;;;0.00;0.00;;;;;13.08;74.12;99084.50;5133530;27;8830;-59
2022/11/09 07:09:31;;;;;;;;;2.00;2.00;;;;;12.96;75.42;99096.47;5133286;27;9249;-59
2022/11/09 07:11:59;;;;;;;;;0.75;0.75;;;;;12.87;75.26;99085.84;5132545;27;8833;-58
2022/11/09 07:14:27;;;;;;;;;0.00;0.00;;;;;12.78;76.33;99098.34;5132923;27;8833;-58
2022/11/09 07:16:55;;;;;;;;;0.00;0.00;;;;;12.72;76.38;99108.78;5133365;27;9276;-58
2022/11/09 07:19:23;;;;;;;;;0.00;0.00;;;;;12.65;76.48;99105.06;5133322;27;8872;-58
2022/11/09 07:21:51;;;;;;;;;0.00;0.00;;;;;12.58;76.88;99096.84;5133474;27;8841;-58
2022/11/09 07:24:18;;;;;;;;;0.25;0.25;;;;;12.53;77.28;99109.00;5133295;27;8825;-57
2022/11/09 07:26:46;;;;;;;;;0.00;0.00;;;;;12.49;76.73;99111.13;5133689;27;8857;-58
2022/11/09 07:29:14;;;;;;;;;0.50;0.50;;;;;12.46;77.28;99106.06;5133574;27;8834;-58
2022/11/09 07:31:43;;;;;;;;;0.00;0.00;;;;;12.42;77.72;99112.72;5133807;27;8829;-56
2022/11/09 07:34:11;;;;;;;;;0.00;0.00;;;;;12.40;77.59;99111.22;5134222;27;8877;-58
2022/11/09 07:36:39;;;;;;;;;0.75;0.00;;;;;12.39;77.59;99105.00;5134633;27;8825;-58
2022/11/09 07:39:07;;;;;;;;;0.00;0.00;;;;;12.40;77.37;99097.84;5135100;27;8842;-57
2022/11/09 07:41:34;;;;;;;;;0.50;0.50;;;;;12.39;77.67;99098.84;5134939;27;8832;-57
2022/11/09 07:44:02;;;;;;;;;0.00;0.00;;;;;12.39;77.62;99110.34;5134892;27;8837;-58
2022/11/09 07:46:30;;;;;;;;;0.00;0.00;;;;;12.39;77.90;99109.53;5135144;27;8813;-55
2022/11/09 07:48:58;;;;;;;;;0.00;0.00;;;;;12.41;77.82;99104.88;5134670;27;8818;-56
2022/11/09 07:51:25;;;;;;;;;0.00;0.00;;;;;12.40;77.33;99097.84;5134704;27;8822;-57
2022/11/09 07:53:53;;;;;;;;;0.00;0.00;;;;;12.41;77.67;99104.88;5134553;27;8861;-58
2022/11/09 07:56:21;;;;;;;;;0.00;0.00;;;;;12.43;77.95;99114.41;5134091;27;8818;-58
2022/11/09 07:58:49;;;;;;;;;0.00;0.00;;;;;12.45;78.01;99117.75;5134102;27;8853;-57
2022/11/09 08:01:17;;;;;;;;;0.00;0.00;;;;;12.51;77.54;99124.31;5133760;27;8849;-58
2022/11/09 08:03:44;;;;;;;;;0.00;0.00;;;;;12.57;77.90;99124.53;5133531;27;8960;-58
2022/11/09 08:06:12;;;;;;;;;0.00;0.00;;;;;12.64;77.39;99119.41;5133390;27;8826;-56
2022/11/09 08:08:48;;;;;;;;;0.00;0.00;;;;;12.67;77.39;99130.63;5133915;27;8841;-57
2022/11/09 08:11:16;;;;;;;;;0.00;0.00;;;;;12.67;77.70;99127.97;5133970;27;8897;-57
2022/11/09 08:13:44;;;;;;;;;0.00;0.00;;;;;12.71;77.36;99125.81;5134404;27;8829;-58
2022/11/09 08:16:12;;;;;;;;;0.00;0.00;;;;;12.75;76.39;99140.56;5134773;27;8905;-57
2022/11/09 08:18:39;;;;;;;;;0.25;0.25;;;;;12.77;77.13;99136.69;5134822;27;8841;-58
2022/11/09 08:21:08;;;;;;;;;0.00;0.00;;;;;12.81;76.34;99135.41;5134231;27;8899;-57
2022/11/09 08:23:37;;;;;;;;;0.00;0.00;;;;;12.86;76.39;99132.28;5134942;27;8837;-58
2022/11/09 08:26:05;;;;;;;;;0.00;0.00;;;;;12.92;76.33;99134.31;5134352;27;8818;-57
2022/11/09 08:28:32;;;;;;;;;0.00;0.00;;;;;12.99;76.18;99122.06;5134339;27;8822;-57
2022/11/09 08:31:00;;;;;;;;;0.50;0.00;;;;;13.05;76.37;99129.44;5134439;27;8967;-57
2022/11/09 08:33:28;;;;;;;;;0.00;0.00;;;;;13.12;75.65;99134.00;5134056;27;8822;-58
2022/11/09 08:35:56;;;;;;;;;0.00;0.00;;;;;13.17;75.68;99136.19;5135418;27;8914;-57
2022/11/09 08:38:24;;;;;;;;;0.00;0.00;;;;;13.20;75.67;99130.53;5134436;27;8918;-56
2022/11/09 08:40:51;;;;;;;;;0.00;0.00;;;;;13.21;75.71;99133.03;5134789;27;8883;-56
2022/11/09 08:43:19;;;;;;;;;0.00;0.00;;;;;13.24;76.51;99139.91;5137953;27;8826;-58
2022/11/09 08:45:50;;;;;;;;;0.00;0.00;;;;;13.24;76.52;99142.56;5137616;27;8844;-58
2022/11/09 08:48:18;;;;;;;;;0.00;0.00;;;;;13.24;75.90;99146.09;5137370;27;8848;-57
2022/11/09 08:50:46;;;;;;;;;0.00;0.00;;;;;13.25;76.32;99144.25;5135401;27;8853;-58
2022/11/09 08:53:14;;;;;;;;;0.00;0.00;;;;;13.28;76.54;99138.59;5135418;27;8843;-58
2022/11/09 08:55:42;;;;;;;;;0.75;0.75;;;;;13.30;76.55;99145.44;5135487;27;8836;-58
2022/11/09 08:58:15;;;;;;;;;0.75;0.00;;;;;13.33;76.40;99142.47;5135062;27;8817;-57
2022/11/09 09:00:44;;;;;;;;;0.00;0.00;;;;;13.41;75.84;99149.69;5135506;27;8830;-58
2022/11/09 09:03:12;;;;;;;;;0.00;0.00;;;;;13.49;75.86;99139.03;5135690;27;8834;-58
2022/11/09 09:05:40;;;;;;;;;0.00;0.00;;;;;13.59;75.81;99137.91;5136706;27;8836;-56
2022/11/09 09:08:10;;;;;;;;;1.00;1.00;;;;;13.71;75.20;99141.13;5137195;27;8881;-57
2022/11/09 09:10:39;;;;;;;;;1.00;1.00;;;;;13.85;75.55;99149.41;5136659;27;8830;-57
2022/11/09 09:13:07;;;;;;;;;0.00;0.00;;;;;13.98;74.56;99146.25;5136060;27;8831;-58
2022/11/09 09:15:35;;;;;;;;;0.25;0.00;;;;;14.14;74.71;99148.97;5136204;27;8899;-57
2022/11/09 09:18:03;;;;;;;;;1.50;1.50;;;;;14.26;74.40;99153.06;5135516;27;8910;-58
2022/11/09 09:20:31;;;;;;;;;3.25;1.00;;;;;14.38;74.00;99157.94;5136074;27;8836;-56
2022/11/09 09:23:00;;;;;;;;;0.25;0.25;;;;;14.46;73.71;99163.31;5136665;27;8952;-58
2022/11/09 09:25:28;;;;;;;;;0.50;0.50;;;;;14.56;73.88;99153.25;5136608;27;9499;-58
2022/11/09 09:27:56;;;;;;;;;1.00;1.00;;;;;14.65;73.53;99154.13;5137223;27;8817;-58
2022/11/09 09:30:24;;;;;;;;;0.25;0.25;;;;;14.75;73.71;99152.94;5136595;27;8837;-57
2022/11/09 09:32:52;;;;;;;;;1.00;1.00;;;;;14.89;73.49;99146.06;5137391;27;9526;-56
2022/11/09 09:35:19;;;;;;;;;1.00;1.00;;;;;15.01;72.70;99150.09;5135818;27;8830;-57
2022/11/09 09:37:48;;;;;;;;;0.00;0.00;;;;;15.11;72.85;99153.41;5135978;27;8833;-58
2022/11/09 09:40:16;;;;;;;;;2.00;2.00;;;;;15.24;72.67;99149.19;5133615;27;8842;-58
2022/11/09 09:42:44;;;;;;;;;1.00;1.00;;;;;15.46;72.06;99161.09;5131932;27;9533;-58
2022/11/09 09:45:11;;;;;;;;;1.00;1.00;;;;;15.80;71.45;99156.28;5132272;27;8848;-58
2022/11/09 09:47:39;;;;;;;;;1.00;1.00;;;;;16.18;70.80;99153.56;5131924;27;9238;-58
2022/11/09 09:50:07;;;;;;;;;1.40;1.00;;;;;16.59;70.37;99158.53;5133103;27;9198;-58
2022/11/09 09:52:35;;;;;;;;;0.00;0.00;;;;;16.85;69.98;99150.94;5132629;27;8833;-56
2022/11/09 09:55:03;;;;;;;;;0.60;0.60;;;;;17.06;68.74;99156.47;5135676;27;8872;-59
2022/11/09 09:57:31;;;;;;;;;0.40;0.40;;;;;17.44;67.75;99162.66;5136995;27;8821;-58
2022/11/09 10:00:05;;;;;;;;;1.00;0.60;;;;;17.86;66.78;99150.25;5136938;27;8849;-59
2022/11/09 10:02:33;;;;;;;;;2.60;1.40;;;;;18.08;66.09;99156.53;5135292;27;8817;-58
2022/11/09 10:05:01;;;;;;;;;0.60;0.60;;;;;18.13;66.29;99157.63;5134646;27;8897;-58
2022/11/09 10:07:29;;;;;;;;;1.00;1.00;;;;;18.14;66.17;99158.47;5135033;27;8857;-58
2022/11/09 10:09:57;;;;;;;;;0.80;0.80;;;;;17.99;66.77;99171.94;5134839;27;8984;-57
2022/11/09 10:12:25;;;;;;;;;0.20;0.20;;;;;17.92;67.23;99170.22;5136072;27;8825;-58
2022/11/09 10:14:53;;;;;;;;;1.00;1.00;;;;;17.88;66.80;99164.34;5135822;27;8914;-58
2022/11/09 10:17:21;;;;;;;;;0.40;0.40;;;;;17.92;67.22;99168.34;5135476;27;8826;-58
2022/11/09 10:19:49;;;;;;;;;1.00;0.80;;;;;17.92;67.16;99171.03;5135236;27;9584;-58
2022/11/09 10:22:17;;;;;;;;;0.80;0.80;;;;;17.83;67.42;99172.16;5134470;27;8848;-59
2022/11/09 10:24:46;;;;;;;;;1.00;0.40;;;;;17.67;67.64;99166.97;5134753;27;8817;-59
2022/11/09 10:27:34;;;;;;;;;1.00;0.40;;;;;17.36;67.53;99177.06;5135268;27;8922;-58
2022/11/09 10:30:02;;;;;;;;;1.00;1.00;;;;;16.96;68.71;99182.78;5133478;27;9606;-58
2022/11/09 10:32:30;;;;;;;;;0.60;0.60;;;;;16.63;69.25;99177.84;5134109;27;8826;-58
2022/11/09 10:34:59;;;;;;;;;3.20;1.40;;;;;16.41;69.72;99176.78;5133953;27;8825;-59
2022/11/09 10:37:28;;;;;;;;;1.00;1.00;;;;;16.52;69.45;99178.25;5134657;27;8880;-58
2022/11/09 10:39:56;;;;;;;;;1.00;1.00;;;;;16.78;69.10;99168.81;5134075;27;8826;-58
2022/11/09 10:42:23;;;;;;;;;1.80;0.60;;;;;17.14;67.57;99177.06;5133959;27;8964;-57
2022/11/09 10:44:51;;;;;;;;;0.00;0.00;;;;;17.31;67.27;99175.91;5133741;27;8960;-58
2022/11/09 10:47:21;;;;;;;;;1.00;0.80;;;;;17.28;67.08;99179.81;5134828;27;8891;-58
2022/11/09 10:49:49;;;;;;;;;1.00;1.00;;;;;17.20;66.93;99185.28;5133712;27;8857;-58
2022/11/09 10:52:17;;;;;;;;;1.00;1.00;;;;;17.13;66.23;99180.78;5132406;27;8846;-58
2022/11/09 10:54:45;;;;;;;;;0.60;0.60;;;;;17.05;66.11;99180.84;5132627;27;8817;-58
2022/11/09 10:57:13;;;;;;;;;1.00;1.00;;;;;17.13;66.02;99178.09;5132898;27;9508;-58
2022/11/09 10:59:41;;;;;;;;;0.00;0.00;;;;;17.31;65.33;99190.19;5132750;27;8830;-58
2022/11/09 11:02:09;;;;;;;;;0.80;0.80;;;;;17.44;65.06;99176.97;5132548;27;8850;-58
2022/11/09 11:04:37;;;;;;;;;0.00;0.00;;;;;17.44;63.91;99173.44;5131669;27;8822;-58
2022/11/09 11:07:05;;;;;;;;;0.20;0.20;;;;;17.29;63.67;99183.31;5131821;27;8825;-58
2022/11/09 11:09:33;;;;;;;;;0.00;0.00;;;;;17.11;63.68;99174.75;5132431;27;8884;-58
2022/11/09 11:12:02;;;;;;;;;0.60;0.60;;;;;17.02;64.14;99190.13;5133064;27;8826;-59
2022/11/09 11:14:30;;;;;;;;;0.00;0.00;;;;;16.98;63.86;99182.59;5133098;27;8915;-58
2022/11/09 11:16:58;;;;;;;;;0.00;0.00;;;;;16.99;63.98;99187.81;5132961;27;8818;-59
2022/11/09 11:19:26;;;;;;;;;1.00;1.00;;;;;17.00;63.84;99184.09;5133451;27;8992;-59
2022/11/09 11:21:54;;;;;;;;;0.80;0.80;;;;;17.00;63.70;99189.47;5133253;27;8865;-58
2022/11/09 11:24:24;;;;;;;;;0.00;0.00;;;;;16.96;63.96;99188.19;5133813;27;8848;-59
2022/11/09 11:26:52;;;;;;;;;1.00;1.00;;;;;16.96;63.68;99181.94;5133518;27;8854;-58
2022/11/09 11:29:20;;;;;;;;;0.80;0.80;;;;;16.97;63.54;99194.38;5134326;27;9484;-59
2022/11/09 11:31:48;;;;;;;;;0.80;0.40;;;;;17.00;63.67;99189.47;5132073;27;8849;-58
2022/11/09 11:34:16;;;;;;;;;0.20;0.20;;;;;17.05;63.26;99205.91;5132307;27;8846;-58
2022/11/09 11:37:04;;;;;;;;;0.00;0.00;;;;;17.15;62.67;99205.69;5130825;27;8850;-58
2022/11/09 11:39:32;;;;;;;;;0.60;0.60;;;;;17.10;62.88;99206.19;5131249;27;9218;-59
2022/11/09 11:42:00;;;;;;;;;0.20;0.20;;;;;16.95;63.23;99202.63;5131118;27;8818;-59
2022/11/09 11:44:28;;;;;;;;;0.60;0.00;;;;;16.84;63.41;99194.97;5130494;27;8852;-59
2022/11/09 11:46:56;;;;;;;;;0.00;0.00;;;;;16.77;63.24;99212.84;5130292;27;8914;-58